sensor_id;sensor_type;location;lat;lon;timestamp;temperature;humidity
26212;DHT22;13951;49.516;6.094;2023-04-25T00:01:47;8.30;99.90
26212;DHT22;13951;49.516;6.094;2023-04-25T00:04:20;8.20;99.90
26212;DHT22;13951;49.516;6.094;2023-04-25T00:06:55;8.30;99.90
26212;DHT22;13951;49.516;6.094;2023-04-25T00:09:28;8.20;99.90
26212;DHT22;13951;49.516;6.094;2023-04-25T00:12:01;8.20;99.90
26212;DHT22;13951;49.516;6.094;2023-04-25T00:14:34;8.20;99.90
26212;DHT22;13951;49.516;6.094;2023-04-25T00:17:07;8.20;99.90
26212;DHT22;13951;49.516;6.094;2023-04-25T00:19:40;8.20;99.90
26212;DHT22;13951;49.516;6.094;2023-04-25T00:22:14;8.20;99.90
26212;DHT22;13951;49.516;6.094;2023-04-25T00:24:46;8.20;99.90
26212;DHT22;13951;49.516;6.094;2023-04-25T00:27:19;8.20;99.90
26212;DHT22;13951;49.516;6.094;2023-04-25T00:29:52;8.20;99.90
26212;DHT22;13951;49.516;6.094;2023-04-25T00:32:25;8.30;99.90
26212;DHT22;13951;49.516;6.094;2023-04-25T00:34:59;8.30;99.90
26212;DHT22;13951;49.516;6.094;2023-04-25T00:37:32;8.30;99.90
26212;DHT22;13951;49.516;6.094;2023-04-25T00:40:06;8.30;99.90
26212;DHT22;13951;49.516;6.094;2023-04-25T00:42:40;8.30;99.90
26212;DHT22;13951;49.516;6.094;2023-04-25T00:45:14;8.30;99.90
26212;DHT22;13951;49.516;6.094;2023-04-25T00:47:48;8.20;99.90
26212;DHT22;13951;49.516;6.094;2023-04-25T00:50:21;8.20;99.90
26212;DHT22;13951;49.516;6.094;2023-04-25T00:52:54;8.20;99.90
26212;DHT22;13951;49.516;6.094;2023-04-25T00:55:28;8.20;99.90
26212;DHT22;13951;49.516;6.094;2023-04-25T00:58:01;8.20;99.90
26212;DHT22;13951;49.516;6.094;2023-04-25T01:00:34;8.30;99.90
26212;DHT22;13951;49.516;6.094;2023-04-25T01:03:07;8.20;99.90
26212;DHT22;13951;49.516;6.094;2023-04-25T01:05:41;8.20;99.90
26212;DHT22;13951;49.516;6.094;2023-04-25T01:08:14;8.20;99.90
26212;DHT22;13951;49.516;6.094;2023-04-25T01:10:47;8.20;99.90
26212;DHT22;13951;49.516;6.094;2023-04-25T01:13:20;8.20;99.90
26212;DHT22;13951;49.516;6.094;2023-04-25T01:15:53;8.20;99.90
26212;DHT22;13951;49.516;6.094;2023-04-25T01:18:27;8.20;99.90
26212;DHT22;13951;49.516;6.094;2023-04-25T01:21:07;8.10;99.90
26212;DHT22;13951;49.516;6.094;2023-04-25T01:23:41;8.10;99.90
26212;DHT22;13951;49.516;6.094;2023-04-25T01:26:15;8.10;99.90
26212;DHT22;13951;49.516;6.094;2023-04-25T01:28:48;8.10;99.90
26212;DHT22;13951;49.516;6.094;2023-04-25T01:31:22;8.10;99.90
26212;DHT22;13951;49.516;6.094;2023-04-25T01:33:55;8.10;99.90
26212;DHT22;13951;49.516;6.094;2023-04-25T01:36:28;8.10;99.90
26212;DHT22;13951;49.516;6.094;2023-04-25T01:39:01;8.10;99.90
26212;DHT22;13951;49.516;6.094;2023-04-25T01:41:34;8.10;99.90
26212;DHT22;13951;49.516;6.094;2023-04-25T01:44:07;8.10;99.90
26212;DHT22;13951;49.516;6.094;2023-04-25T01:46:41;8.20;99.90
26212;DHT22;13951;49.516;6.094;2023-04-25T01:49:16;8.20;99.90
26212;DHT22;13951;49.516;6.094;2023-04-25T01:51:50;8.20;99.90
26212;DHT22;13951;49.516;6.094;2023-04-25T01:54:23;8.20;99.90
26212;DHT22;13951;49.516;6.094;2023-04-25T01:56:57;8.10;99.90
26212;DHT22;13951;49.516;6.094;2023-04-25T01:59:30;8.20;99.90
26212;DHT22;13951;49.516;6.094;2023-04-25T02:02:41;8.20;99.90
26212;DHT22;13951;49.516;6.094;2023-04-25T02:05:38;8.20;99.90
26212;DHT22;13951;49.516;6.094;2023-04-25T02:08:13;8.20;99.90
26212;DHT22;13951;49.516;6.094;2023-04-25T02:10:46;8.10;99.90
26212;DHT22;13951;49.516;6.094;2023-04-25T02:13:25;8.00;99.90
26212;DHT22;13951;49.516;6.094;2023-04-25T02:16:04;8.00;99.90
26212;DHT22;13951;49.516;6.094;2023-04-25T02:18:38;8.10;99.90
26212;DHT22;13951;49.516;6.094;2023-04-25T02:21:12;8.10;99.90
26212;DHT22;13951;49.516;6.094;2023-04-25T02:23:44;8.10;99.90
26212;DHT22;13951;49.516;6.094;2023-04-25T02:26:21;8.10;99.90
26212;DHT22;13951;49.516;6.094;2023-04-25T02:28:57;8.10;99.90
26212;DHT22;13951;49.516;6.094;2023-04-25T02:31:30;8.20;99.90
26212;DHT22;13951;49.516;6.094;2023-04-25T02:34:05;8.20;99.90
26212;DHT22;13951;49.516;6.094;2023-04-25T02:36:41;8.20;99.90
26212;DHT22;13951;49.516;6.094;2023-04-25T02:39:14;8.20;99.90
26212;DHT22;13951;49.516;6.094;2023-04-25T02:41:47;8.20;99.90
26212;DHT22;13951;49.516;6.094;2023-04-25T02:44:20;8.20;99.90
26212;DHT22;13951;49.516;6.094;2023-04-25T02:46:53;8.20;99.90
26212;DHT22;13951;49.516;6.094;2023-04-25T02:49:28;8.20;99.90
26212;DHT22;13951;49.516;6.094;2023-04-25T02:52:02;8.20;99.90
26212;DHT22;13951;49.516;6.094;2023-04-25T02:54:35;8.20;99.90
26212;DHT22;13951;49.516;6.094;2023-04-25T02:57:08;8.20;99.90
26212;DHT22;13951;49.516;6.094;2023-04-25T02:59:42;8.20;99.90
26212;DHT22;13951;49.516;6.094;2023-04-25T03:02:15;8.20;99.90
26212;DHT22;13951;49.516;6.094;2023-04-25T03:04:48;8.20;99.90
26212;DHT22;13951;49.516;6.094;2023-04-25T03:07:22;8.20;99.90
26212;DHT22;13951;49.516;6.094;2023-04-25T03:09:55;8.20;99.90
26212;DHT22;13951;49.516;6.094;2023-04-25T03:12:29;8.20;99.90
26212;DHT22;13951;49.516;6.094;2023-04-25T03:15:02;8.30;99.90
26212;DHT22;13951;49.516;6.094;2023-04-25T03:17:35;8.20;99.90
26212;DHT22;13951;49.516;6.094;2023-04-25T03:20:08;8.20;99.90
26212;DHT22;13951;49.516;6.094;2023-04-25T03:22:42;8.30;99.90
26212;DHT22;13951;49.516;6.094;2023-04-25T03:25:15;8.30;99.90
26212;DHT22;13951;49.516;6.094;2023-04-25T03:27:48;8.20;99.90
26212;DHT22;13951;49.516;6.094;2023-04-25T03:30:21;8.20;99.90
26212;DHT22;13951;49.516;6.094;2023-04-25T03:32:54;8.20;99.90
26212;DHT22;13951;49.516;6.094;2023-04-25T03:35:28;8.20;99.90
26212;DHT22;13951;49.516;6.094;2023-04-25T03:38:02;8.20;99.90
26212;DHT22;13951;49.516;6.094;2023-04-25T03:40:40;8.20;99.90
26212;DHT22;13951;49.516;6.094;2023-04-25T03:43:26;8.20;99.90
26212;DHT22;13951;49.516;6.094;2023-04-25T03:46:04;8.20;99.90
26212;DHT22;13951;49.516;6.094;2023-04-25T03:48:37;8.20;99.90
26212;DHT22;13951;49.516;6.094;2023-04-25T03:51:10;8.20;99.90
26212;DHT22;13951;49.516;6.094;2023-04-25T03:53:47;8.20;99.90
26212;DHT22;13951;49.516;6.094;2023-04-25T03:56:41;8.20;99.90
26212;DHT22;13951;49.516;6.094;2023-04-25T03:59:22;8.20;99.90
26212;DHT22;13951;49.516;6.094;2023-04-25T04:01:55;8.20;99.90
26212;DHT22;13951;49.516;6.094;2023-04-25T04:04:28;8.20;99.90
26212;DHT22;13951;49.516;6.094;2023-04-25T04:07:02;8.20;99.90
26212;DHT22;13951;49.516;6.094;2023-04-25T04:09:39;8.20;99.90
26212;DHT22;13951;49.516;6.094;2023-04-25T04:12:16;8.20;99.90
26212;DHT22;13951;49.516;6.094;2023-04-25T04:14:48;8.10;99.90
26212;DHT22;13951;49.516;6.094;2023-04-25T04:17:21;8.10;99.90
26212;DHT22;13951;49.516;6.094;2023-04-25T04:19:56;8.10;99.90
26212;DHT22;13951;49.516;6.094;2023-04-25T04:22:29;8.10;99.90
26212;DHT22;13951;49.516;6.094;2023-04-25T04:25:07;8.10;99.90
26212;DHT22;13951;49.516;6.094;2023-04-25T04:28:03;8.10;99.90
26212;DHT22;13951;49.516;6.094;2023-04-25T04:31:15;8.10;99.90
26212;DHT22;13951;49.516;6.094;2023-04-25T04:33:48;8.10;99.90
26212;DHT22;13951;49.516;6.094;2023-04-25T04:36:22;8.10;99.90
26212;DHT22;13951;49.516;6.094;2023-04-25T04:38:56;8.10;99.90
26212;DHT22;13951;49.516;6.094;2023-04-25T04:41:40;8.10;99.90
26212;DHT22;13951;49.516;6.094;2023-04-25T04:44:16;8.10;99.90
26212;DHT22;13951;49.516;6.094;2023-04-25T04:47:10;8.10;99.90
26212;DHT22;13951;49.516;6.094;2023-04-25T04:50:04;8.10;99.90
26212;DHT22;13951;49.516;6.094;2023-04-25T04:53:04;8.10;99.90
26212;DHT22;13951;49.516;6.094;2023-04-25T04:55:48;8.10;99.90
26212;DHT22;13951;49.516;6.094;2023-04-25T04:58:52;8.00;99.90
26212;DHT22;13951;49.516;6.094;2023-04-25T05:01:38;8.00;99.90
26212;DHT22;13951;49.516;6.094;2023-04-25T05:04:43;8.00;99.90
26212;DHT22;13951;49.516;6.094;2023-04-25T05:07:29;8.00;99.90
26212;DHT22;13951;49.516;6.094;2023-04-25T05:10:10;8.10;99.90
26212;DHT22;13951;49.516;6.094;2023-04-25T05:13:09;8.10;99.90
26212;DHT22;13951;49.516;6.094;2023-04-25T05:16:05;8.10;99.90
26212;DHT22;13951;49.516;6.094;2023-04-25T05:19:02;8.10;99.90
26212;DHT22;13951;49.516;6.094;2023-04-25T05:21:59;8.10;99.90
26212;DHT22;13951;49.516;6.094;2023-04-25T05:24:39;8.10;99.90
26212;DHT22;13951;49.516;6.094;2023-04-25T05:27:36;8.20;99.90
26212;DHT22;13951;49.516;6.094;2023-04-25T05:30:34;8.20;99.90
26212;DHT22;13951;49.516;6.094;2023-04-25T05:33:15;8.30;99.90
26212;DHT22;13951;49.516;6.094;2023-04-25T05:35:49;8.30;99.90
26212;DHT22;13951;49.516;6.094;2023-04-25T05:38:23;8.30;99.90
26212;DHT22;13951;49.516;6.094;2023-04-25T05:41:11;8.30;99.90
26212;DHT22;13951;49.516;6.094;2023-04-25T05:43:48;8.40;99.90
26212;DHT22;13951;49.516;6.094;2023-04-25T05:46:29;8.40;99.90
26212;DHT22;13951;49.516;6.094;2023-04-25T05:49:24;8.40;99.90
26212;DHT22;13951;49.516;6.094;2023-04-25T05:52:26;8.40;99.90
26212;DHT22;13951;49.516;6.094;2023-04-25T05:55:09;8.40;99.90
26212;DHT22;13951;49.516;6.094;2023-04-25T05:57:42;8.40;99.90
26212;DHT22;13951;49.516;6.094;2023-04-25T06:00:19;8.30;99.90
26212;DHT22;13951;49.516;6.094;2023-04-25T06:02:55;8.40;99.90
26212;DHT22;13951;49.516;6.094;2023-04-25T06:05:29;8.40;99.90
26212;DHT22;13951;49.516;6.094;2023-04-25T06:08:05;8.40;99.90
26212;DHT22;13951;49.516;6.094;2023-04-25T06:10:38;8.40;99.90
26212;DHT22;13951;49.516;6.094;2023-04-25T06:13:10;8.50;99.90
26212;DHT22;13951;49.516;6.094;2023-04-25T06:15:43;8.60;99.90
26212;DHT22;13951;49.516;6.094;2023-04-25T06:18:17;8.60;99.90
26212;DHT22;13951;49.516;6.094;2023-04-25T06:20:50;8.60;99.90
26212;DHT22;13951;49.516;6.094;2023-04-25T06:23:23;8.60;99.90
26212;DHT22;13951;49.516;6.094;2023-04-25T06:26:02;8.60;99.90
26212;DHT22;13951;49.516;6.094;2023-04-25T06:28:36;8.70;99.90
26212;DHT22;13951;49.516;6.094;2023-04-25T06:31:10;8.70;99.90
26212;DHT22;13951;49.516;6.094;2023-04-25T06:33:44;8.70;99.90
26212;DHT22;13951;49.516;6.094;2023-04-25T06:36:17;8.70;99.90
26212;DHT22;13951;49.516;6.094;2023-04-25T06:38:53;8.70;99.90
26212;DHT22;13951;49.516;6.094;2023-04-25T06:41:26;8.80;99.90
26212;DHT22;13951;49.516;6.094;2023-04-25T06:44:04;8.80;99.90
26212;DHT22;13951;49.516;6.094;2023-04-25T06:46:41;8.70;99.90
26212;DHT22;13951;49.516;6.094;2023-04-25T06:49:14;8.80;99.90
26212;DHT22;13951;49.516;6.094;2023-04-25T06:51:47;8.80;99.90
26212;DHT22;13951;49.516;6.094;2023-04-25T06:54:20;8.80;99.90
26212;DHT22;13951;49.516;6.094;2023-04-25T06:57:03;8.80;99.90
26212;DHT22;13951;49.516;6.094;2023-04-25T06:59:40;8.80;99.90
26212;DHT22;13951;49.516;6.094;2023-04-25T07:02:14;8.80;99.90
26212;DHT22;13951;49.516;6.094;2023-04-25T07:05:40;8.80;99.90
26212;DHT22;13951;49.516;6.094;2023-04-25T07:09:49;8.80;99.90
26212;DHT22;13951;49.516;6.094;2023-04-25T07:24:17;8.80;99.90
26212;DHT22;13951;49.516;6.094;2023-04-25T07:28:55;8.70;99.90
26212;DHT22;13951;49.516;6.094;2023-04-25T08:29:32;8.80;99.90
26212;DHT22;13951;49.516;6.094;2023-04-25T08:33:58;8.90;99.90
26212;DHT22;13951;49.516;6.094;2023-04-25T08:45:31;9.10;99.90
26212;DHT22;13951;49.516;6.094;2023-04-25T08:57:31;8.90;99.90
26212;DHT22;13951;49.516;6.094;2023-04-25T09:02:18;8.80;99.90
26212;DHT22;13951;49.516;6.094;2023-04-25T09:34:38;8.70;99.90
26212;DHT22;13951;49.516;6.094;2023-04-25T09:55:58;9.10;99.90
26212;DHT22;13951;49.516;6.094;2023-04-25T10:00:50;9.20;99.90
26212;DHT22;13951;49.516;6.094;2023-04-25T10:10:37;9.20;99.90
26212;DHT22;13951;49.516;6.094;2023-04-25T10:15:23;9.30;99.90
26212;DHT22;13951;49.516;6.094;2023-04-25T10:31:53;9.80;99.90
26212;DHT22;13951;49.516;6.094;2023-04-25T10:36:52;9.90;99.90
26212;DHT22;13951;49.516;6.094;2023-04-25T10:45:54;11.10;99.90
26212;DHT22;13951;49.516;6.094;2023-04-25T10:49:48;11.10;99.90
26212;DHT22;13951;49.516;6.094;2023-04-25T10:54:11;11.10;99.90
26212;DHT22;13951;49.516;6.094;2023-04-25T11:01:15;10.70;99.90
26212;DHT22;13951;49.516;6.094;2023-04-25T12:01:49;11.70;99.90
26212;DHT22;13951;49.516;6.094;2023-04-25T12:06:10;11.50;99.90
26212;DHT22;13951;49.516;6.094;2023-04-25T12:19:55;11.60;99.90
26212;DHT22;13951;49.516;6.094;2023-04-25T12:24:46;11.50;99.90
26212;DHT22;13951;49.516;6.094;2023-04-25T12:34:19;11.80;99.90
26212;DHT22;13951;49.516;6.094;2023-04-25T12:37:49;11.90;99.90
26212;DHT22;13951;49.516;6.094;2023-04-25T12:40:55;11.90;99.90
26212;DHT22;13951;49.516;6.094;2023-04-25T12:44:41;12.00;99.90
26212;DHT22;13951;49.516;6.094;2023-04-25T12:47:14;12.10;99.90
26212;DHT22;13951;49.516;6.094;2023-04-25T12:49:47;12.10;99.90
26212;DHT22;13951;49.516;6.094;2023-04-25T12:52:21;12.20;99.90
26212;DHT22;13951;49.516;6.094;2023-04-25T12:54:54;12.20;99.90
26212;DHT22;13951;49.516;6.094;2023-04-25T12:57:27;12.20;99.90
26212;DHT22;13951;49.516;6.094;2023-04-25T13:00:00;12.20;99.90
26212;DHT22;13951;49.516;6.094;2023-04-25T13:02:33;12.20;99.90
26212;DHT22;13951;49.516;6.094;2023-04-25T13:05:06;12.10;99.90
26212;DHT22;13951;49.516;6.094;2023-04-25T13:07:40;12.10;99.90
26212;DHT22;13951;49.516;6.094;2023-04-25T13:10:13;12.10;99.90
26212;DHT22;13951;49.516;6.094;2023-04-25T13:12:46;12.00;99.90
26212;DHT22;13951;49.516;6.094;2023-04-25T13:15:19;11.90;99.90
26212;DHT22;13951;49.516;6.094;2023-04-25T13:17:53;11.80;99.90
26212;DHT22;13951;49.516;6.094;2023-04-25T13:20:26;11.80;99.90
26212;DHT22;13951;49.516;6.094;2023-04-25T13:22:59;11.70;99.90
26212;DHT22;13951;49.516;6.094;2023-04-25T13:25:34;11.50;99.90
26212;DHT22;13951;49.516;6.094;2023-04-25T13:28:07;11.40;99.90
26212;DHT22;13951;49.516;6.094;2023-04-25T13:30:40;11.30;99.90
26212;DHT22;13951;49.516;6.094;2023-04-25T13:33:14;11.20;99.90
26212;DHT22;13951;49.516;6.094;2023-04-25T13:35:49;11.20;99.90
26212;DHT22;13951;49.516;6.094;2023-04-25T13:38:26;11.30;99.90
26212;DHT22;13951;49.516;6.094;2023-04-25T13:40:59;11.40;99.90
26212;DHT22;13951;49.516;6.094;2023-04-25T13:43:32;11.40;99.90
26212;DHT22;13951;49.516;6.094;2023-04-25T13:46:06;11.50;99.90
26212;DHT22;13951;49.516;6.094;2023-04-25T13:48:39;11.60;99.90
26212;DHT22;13951;49.516;6.094;2023-04-25T13:51:14;11.70;99.90
26212;DHT22;13951;49.516;6.094;2023-04-25T13:53:48;11.80;99.90
26212;DHT22;13951;49.516;6.094;2023-04-25T13:56:21;11.70;99.90
26212;DHT22;13951;49.516;6.094;2023-04-25T13:58:54;11.70;99.90
26212;DHT22;13951;49.516;6.094;2023-04-25T14:01:27;11.70;99.90
26212;DHT22;13951;49.516;6.094;2023-04-25T14:04:03;11.80;99.90
26212;DHT22;13951;49.516;6.094;2023-04-25T14:06:36;11.90;99.90
26212;DHT22;13951;49.516;6.094;2023-04-25T14:09:10;11.90;99.90
26212;DHT22;13951;49.516;6.094;2023-04-25T14:11:42;12.00;99.90
26212;DHT22;13951;49.516;6.094;2023-04-25T14:14:16;12.10;99.90
26212;DHT22;13951;49.516;6.094;2023-04-25T14:16:50;12.20;99.90
26212;DHT22;13951;49.516;6.094;2023-04-25T14:19:24;12.30;99.90
26212;DHT22;13951;49.516;6.094;2023-04-25T14:21:57;12.40;99.90
26212;DHT22;13951;49.516;6.094;2023-04-25T14:24:33;12.40;99.90
26212;DHT22;13951;49.516;6.094;2023-04-25T14:27:06;12.40;99.90
26212;DHT22;13951;49.516;6.094;2023-04-25T14:29:39;12.40;99.90
26212;DHT22;13951;49.516;6.094;2023-04-25T14:32:12;12.40;99.90
26212;DHT22;13951;49.516;6.094;2023-04-25T14:34:44;12.40;99.90
26212;DHT22;13951;49.516;6.094;2023-04-25T14:37:17;12.30;99.90
26212;DHT22;13951;49.516;6.094;2023-04-25T14:39:50;12.20;99.90
26212;DHT22;13951;49.516;6.094;2023-04-25T14:42:23;12.10;99.90
26212;DHT22;13951;49.516;6.094;2023-04-25T14:44:56;12.10;99.90
26212;DHT22;13951;49.516;6.094;2023-04-25T14:47:29;12.00;99.90
26212;DHT22;13951;49.516;6.094;2023-04-25T14:50:02;12.00;99.90
26212;DHT22;13951;49.516;6.094;2023-04-25T14:52:35;11.90;99.90
26212;DHT22;13951;49.516;6.094;2023-04-25T14:55:09;11.80;99.90
26212;DHT22;13951;49.516;6.094;2023-04-25T14:57:43;11.80;99.90
26212;DHT22;13951;49.516;6.094;2023-04-25T15:00:17;11.70;99.90
26212;DHT22;13951;49.516;6.094;2023-04-25T15:02:51;11.60;99.90
26212;DHT22;13951;49.516;6.094;2023-04-25T15:05:24;11.60;99.90
26212;DHT22;13951;49.516;6.094;2023-04-25T15:07:58;11.60;99.90
26212;DHT22;13951;49.516;6.094;2023-04-25T15:10:31;11.70;99.90
26212;DHT22;13951;49.516;6.094;2023-04-25T15:13:04;11.70;99.90
26212;DHT22;13951;49.516;6.094;2023-04-25T15:15:37;11.70;99.90
26212;DHT22;13951;49.516;6.094;2023-04-25T15:18:10;11.70;99.90
26212;DHT22;13951;49.516;6.094;2023-04-25T15:20:44;11.60;99.90
26212;DHT22;13951;49.516;6.094;2023-04-25T15:23:18;11.50;99.90
26212;DHT22;13951;49.516;6.094;2023-04-25T15:25:51;11.40;99.90
26212;DHT22;13951;49.516;6.094;2023-04-25T15:28:25;11.40;99.90
26212;DHT22;13951;49.516;6.094;2023-04-25T15:30:58;11.40;99.90
26212;DHT22;13951;49.516;6.094;2023-04-25T15:33:31;11.50;99.90
26212;DHT22;13951;49.516;6.094;2023-04-25T15:36:05;11.40;99.90
26212;DHT22;13951;49.516;6.094;2023-04-25T15:38:38;11.40;99.90
26212;DHT22;13951;49.516;6.094;2023-04-25T15:41:12;11.30;99.90
26212;DHT22;13951;49.516;6.094;2023-04-25T15:43:46;11.20;99.90
26212;DHT22;13951;49.516;6.094;2023-04-25T15:46:21;11.20;99.90
26212;DHT22;13951;49.516;6.094;2023-04-25T15:48:55;11.10;99.90
26212;DHT22;13951;49.516;6.094;2023-04-25T15:51:29;11.10;99.90
26212;DHT22;13951;49.516;6.094;2023-04-25T15:54:02;11.10;99.90
26212;DHT22;13951;49.516;6.094;2023-04-25T15:56:35;11.10;99.90
26212;DHT22;13951;49.516;6.094;2023-04-25T15:59:09;11.10;99.90
26212;DHT22;13951;49.516;6.094;2023-04-25T16:01:43;11.10;99.90
26212;DHT22;13951;49.516;6.094;2023-04-25T16:04:17;11.10;99.90
26212;DHT22;13951;49.516;6.094;2023-04-25T16:06:51;11.10;99.90
26212;DHT22;13951;49.516;6.094;2023-04-25T16:09:24;11.10;99.90
26212;DHT22;13951;49.516;6.094;2023-04-25T16:11:58;11.10;99.90
26212;DHT22;13951;49.516;6.094;2023-04-25T16:14:35;11.20;99.90
26212;DHT22;13951;49.516;6.094;2023-04-25T16:17:08;11.20;99.90
26212;DHT22;13951;49.516;6.094;2023-04-25T16:19:44;11.20;99.90
26212;DHT22;13951;49.516;6.094;2023-04-25T16:22:19;11.20;99.90
26212;DHT22;13951;49.516;6.094;2023-04-25T16:24:54;11.10;99.90
26212;DHT22;13951;49.516;6.094;2023-04-25T16:27:30;11.10;99.90
26212;DHT22;13951;49.516;6.094;2023-04-25T16:30:07;11.20;99.90
26212;DHT22;13951;49.516;6.094;2023-04-25T16:32:47;11.10;99.90
26212;DHT22;13951;49.516;6.094;2023-04-25T16:35:40;11.10;99.90
26212;DHT22;13951;49.516;6.094;2023-04-25T16:38:15;11.10;99.90
26212;DHT22;13951;49.516;6.094;2023-04-25T16:41:04;11.10;99.90
26212;DHT22;13951;49.516;6.094;2023-04-25T16:43:40;11.10;99.90
26212;DHT22;13951;49.516;6.094;2023-04-25T16:46:19;11.00;99.90
26212;DHT22;13951;49.516;6.094;2023-04-25T16:48:57;11.00;99.90
26212;DHT22;13951;49.516;6.094;2023-04-25T16:51:32;10.90;99.90
26212;DHT22;13951;49.516;6.094;2023-04-25T16:54:07;10.90;99.90
26212;DHT22;13951;49.516;6.094;2023-04-25T16:56:42;10.90;99.90
26212;DHT22;13951;49.516;6.094;2023-04-25T16:59:15;10.80;99.90
26212;DHT22;13951;49.516;6.094;2023-04-25T17:01:48;10.80;99.90
26212;DHT22;13951;49.516;6.094;2023-04-25T17:04:21;10.80;99.90
26212;DHT22;13951;49.516;6.094;2023-04-25T17:06:57;10.80;99.90
26212;DHT22;13951;49.516;6.094;2023-04-25T17:09:34;10.70;99.90
26212;DHT22;13951;49.516;6.094;2023-04-25T17:12:25;10.70;99.90
26212;DHT22;13951;49.516;6.094;2023-04-25T17:14:58;10.70;99.90
26212;DHT22;13951;49.516;6.094;2023-04-25T17:17:48;10.70;99.90
26212;DHT22;13951;49.516;6.094;2023-04-25T17:20:38;10.70;99.90
26212;DHT22;13951;49.516;6.094;2023-04-25T17:23:14;10.70;99.90
26212;DHT22;13951;49.516;6.094;2023-04-25T17:26:20;10.60;99.90
26212;DHT22;13951;49.516;6.094;2023-04-25T17:28:57;10.60;99.90
26212;DHT22;13951;49.516;6.094;2023-04-25T17:31:30;10.70;99.90
26212;DHT22;13951;49.516;6.094;2023-04-25T17:34:03;10.60;99.90
26212;DHT22;13951;49.516;6.094;2023-04-25T17:36:37;10.70;99.90
26212;DHT22;13951;49.516;6.094;2023-04-25T17:39:12;10.70;99.90
26212;DHT22;13951;49.516;6.094;2023-04-25T17:41:46;10.70;99.90
26212;DHT22;13951;49.516;6.094;2023-04-25T17:44:19;10.60;99.90
26212;DHT22;13951;49.516;6.094;2023-04-25T17:46:52;10.60;99.90
26212;DHT22;13951;49.516;6.094;2023-04-25T17:49:25;10.60;99.90
26212;DHT22;13951;49.516;6.094;2023-04-25T17:51:59;10.60;99.90
26212;DHT22;13951;49.516;6.094;2023-04-25T17:54:32;10.50;99.90
26212;DHT22;13951;49.516;6.094;2023-04-25T17:57:07;10.50;99.90
26212;DHT22;13951;49.516;6.094;2023-04-25T17:59:40;10.50;99.90
26212;DHT22;13951;49.516;6.094;2023-04-25T18:02:14;10.50;99.90
26212;DHT22;13951;49.516;6.094;2023-04-25T18:04:49;10.40;99.90
26212;DHT22;13951;49.516;6.094;2023-04-25T18:07:22;10.40;99.90
26212;DHT22;13951;49.516;6.094;2023-04-25T18:09:55;10.40;99.90
26212;DHT22;13951;49.516;6.094;2023-04-25T18:12:27;10.30;99.90
26212;DHT22;13951;49.516;6.094;2023-04-25T18:15:00;10.30;99.90
26212;DHT22;13951;49.516;6.094;2023-04-25T18:17:36;10.20;99.90
26212;DHT22;13951;49.516;6.094;2023-04-25T18:20:13;10.20;99.90
26212;DHT22;13951;49.516;6.094;2023-04-25T18:22:50;10.10;99.90
26212;DHT22;13951;49.516;6.094;2023-04-25T18:25:23;10.10;99.90
26212;DHT22;13951;49.516;6.094;2023-04-25T18:27:56;10.10;99.90
26212;DHT22;13951;49.516;6.094;2023-04-25T18:30:31;10.00;99.90
26212;DHT22;13951;49.516;6.094;2023-04-25T18:33:04;10.00;99.90
26212;DHT22;13951;49.516;6.094;2023-04-25T18:35:37;10.00;99.90
26212;DHT22;13951;49.516;6.094;2023-04-25T18:38:23;9.90;99.90
26212;DHT22;13951;49.516;6.094;2023-04-25T18:41:07;9.80;99.90
26212;DHT22;13951;49.516;6.094;2023-04-25T18:44:00;9.70;99.90
26212;DHT22;13951;49.516;6.094;2023-04-25T18:46:35;9.60;99.90
26212;DHT22;13951;49.516;6.094;2023-04-25T18:49:09;9.50;99.90
26212;DHT22;13951;49.516;6.094;2023-04-25T18:51:42;9.40;99.90
26212;DHT22;13951;49.516;6.094;2023-04-25T18:54:16;9.30;99.90
26212;DHT22;13951;49.516;6.094;2023-04-25T18:56:49;9.20;99.90
26212;DHT22;13951;49.516;6.094;2023-04-25T18:59:22;9.20;99.90
26212;DHT22;13951;49.516;6.094;2023-04-25T19:01:55;9.20;99.90
26212;DHT22;13951;49.516;6.094;2023-04-25T19:04:28;9.10;99.90
26212;DHT22;13951;49.516;6.094;2023-04-25T19:07:01;9.00;99.90
26212;DHT22;13951;49.516;6.094;2023-04-25T19:09:35;9.00;99.90
26212;DHT22;13951;49.516;6.094;2023-04-25T19:12:08;9.00;99.90
26212;DHT22;13951;49.516;6.094;2023-04-25T19:14:41;9.00;99.90
26212;DHT22;13951;49.516;6.094;2023-04-25T19:17:15;8.90;99.90
26212;DHT22;13951;49.516;6.094;2023-04-25T19:19:48;8.80;99.90
26212;DHT22;13951;49.516;6.094;2023-04-25T19:22:21;8.70;99.90
26212;DHT22;13951;49.516;6.094;2023-04-25T19:24:54;8.70;99.90
26212;DHT22;13951;49.516;6.094;2023-04-25T19:27:41;8.70;99.90
26212;DHT22;13951;49.516;6.094;2023-04-25T19:30:14;8.60;99.90
26212;DHT22;13951;49.516;6.094;2023-04-25T19:32:48;8.50;99.90
26212;DHT22;13951;49.516;6.094;2023-04-25T19:35:22;8.50;99.90
26212;DHT22;13951;49.516;6.094;2023-04-25T19:37:55;8.40;99.90
26212;DHT22;13951;49.516;6.094;2023-04-25T19:40:28;8.40;99.90
26212;DHT22;13951;49.516;6.094;2023-04-25T19:43:04;8.30;99.90
26212;DHT22;13951;49.516;6.094;2023-04-25T19:45:38;8.30;99.90
26212;DHT22;13951;49.516;6.094;2023-04-25T19:48:10;8.20;99.90
26212;DHT22;13951;49.516;6.094;2023-04-25T19:50:45;8.10;99.90
26212;DHT22;13951;49.516;6.094;2023-04-25T19:53:19;8.10;99.90
26212;DHT22;13951;49.516;6.094;2023-04-25T19:55:52;8.10;99.90
26212;DHT22;13951;49.516;6.094;2023-04-25T19:58:25;8.10;99.90
26212;DHT22;13951;49.516;6.094;2023-04-25T20:00:58;8.10;99.90
26212;DHT22;13951;49.516;6.094;2023-04-25T20:03:31;8.10;99.90
26212;DHT22;13951;49.516;6.094;2023-04-25T20:06:04;8.00;99.90
26212;DHT22;13951;49.516;6.094;2023-04-25T20:08:37;7.90;99.90
26212;DHT22;13951;49.516;6.094;2023-04-25T20:11:11;7.90;99.90
26212;DHT22;13951;49.516;6.094;2023-04-25T20:13:43;7.90;99.90
26212;DHT22;13951;49.516;6.094;2023-04-25T20:16:16;7.90;99.90
26212;DHT22;13951;49.516;6.094;2023-04-25T20:18:52;7.90;99.90
26212;DHT22;13951;49.516;6.094;2023-04-25T20:21:25;7.90;99.90
26212;DHT22;13951;49.516;6.094;2023-04-25T20:24:00;7.80;99.90
26212;DHT22;13951;49.516;6.094;2023-04-25T20:26:33;7.80;99.90
26212;DHT22;13951;49.516;6.094;2023-04-25T20:29:05;7.70;99.90
26212;DHT22;13951;49.516;6.094;2023-04-25T20:31:38;7.60;99.90
26212;DHT22;13951;49.516;6.094;2023-04-25T20:34:11;7.60;99.90
26212;DHT22;13951;49.516;6.094;2023-04-25T20:36:45;7.60;99.90
26212;DHT22;13951;49.516;6.094;2023-04-25T20:39:18;7.50;99.90
26212;DHT22;13951;49.516;6.094;2023-04-25T20:41:51;7.40;99.90
26212;DHT22;13951;49.516;6.094;2023-04-25T20:44:24;7.40;99.90
26212;DHT22;13951;49.516;6.094;2023-04-25T20:46:57;7.40;99.90
26212;DHT22;13951;49.516;6.094;2023-04-25T20:49:30;7.40;99.90
26212;DHT22;13951;49.516;6.094;2023-04-25T20:52:04;7.30;99.90
26212;DHT22;13951;49.516;6.094;2023-04-25T20:54:39;7.20;99.90
26212;DHT22;13951;49.516;6.094;2023-04-25T20:57:12;7.10;99.90
26212;DHT22;13951;49.516;6.094;2023-04-25T20:59:44;7.00;99.90
26212;DHT22;13951;49.516;6.094;2023-04-25T21:02:17;6.90;99.90
26212;DHT22;13951;49.516;6.094;2023-04-25T21:04:51;6.80;99.90